createdAt,value
2017-10-09T17:21:28.148Z,49.85
2017-10-09T17:23:54.095Z,49.24
2017-10-09T17:26:20.185Z,49.01
2017-10-09T17:28:46.129Z,48.11
2017-10-09T17:33:06.843Z,42.20
2017-10-09T17:35:32.788Z,44.89
2017-10-09T17:37:59.597Z,42.57
2017-10-09T17:40:25.565Z,41.49
2017-10-09T17:42:51.516Z,40.25
2017-10-09T17:46:02.759Z,41.48
2017-10-09T17:48:28.724Z,41.77
2017-10-09T17:50:54.691Z,41.21
2017-10-09T17:53:20.645Z,41.24
2017-10-09T17:55:46.614Z,40.84
2017-10-09T17:58:12.586Z,40.92
2017-10-09T18:00:38.541Z,41.14
2017-10-09T18:03:04.554Z,40.31
2017-10-09T18:05:30.513Z,40.51
2017-10-09T18:07:56.624Z,40.47
2017-10-09T18:10:22.583Z,40.08
2017-10-09T18:12:48.520Z,39.83
2017-10-09T18:15:14.487Z,40.11
2017-10-09T18:17:40.463Z,40.00
2017-10-09T18:20:06.451Z,39.79
2017-10-09T18:22:32.470Z,39.89
2017-10-09T18:24:58.409Z,39.43
2017-10-09T18:27:24.375Z,39.16
2017-10-09T18:29:50.347Z,39.55
2017-10-09T18:32:16.380Z,39.49
2017-10-09T18:34:42.624Z,39.70
2017-10-09T18:37:08.723Z,39.30
2017-10-09T18:39:34.684Z,39.23
2017-10-09T18:42:00.639Z,39.29
2017-10-09T18:44:26.659Z,38.74
2017-10-09T18:46:52.615Z,39.11
2017-10-09T18:49:18.589Z,39.08
2017-10-09T18:51:44.574Z,39.02
2017-10-09T18:54:10.580Z,38.92
2017-10-09T18:56:36.613Z,38.80
2017-10-09T18:59:04.665Z,38.96
2017-10-09T19:01:30.655Z,38.77
2017-10-09T19:03:56.706Z,39.18
2017-10-09T19:06:23.835Z,39.34
2017-10-09T19:08:51.887Z,38.97
2017-10-09T19:11:17.904Z,39.31
2017-10-09T19:13:43.889Z,39.04
2017-10-09T19:16:11.363Z,38.99
2017-10-09T19:18:40.798Z,38.97
2017-10-09T19:21:06.778Z,39.34
2017-10-09T19:23:32.830Z,39.18
2017-10-09T19:25:58.875Z,39.18
2017-10-09T19:28:24.869Z,39.03
2017-10-09T19:30:50.860Z,38.94
2017-10-09T19:33:17.025Z,39.03
2017-10-09T19:35:42.991Z,43.23
2017-10-09T19:38:08.983Z,53.01
2017-10-09T20:03:38.322Z,55.62
